createdAt,value
2019-04-01T00:02:09.515Z,13.72
2019-04-01T00:04:38.084Z,22.37
2019-04-01T00:07:06.597Z,24.43
2019-04-01T00:09:35.060Z,17.87
2019-04-01T00:12:03.586Z,19.25
2019-04-01T00:14:32.087Z,17.23
2019-04-01T00:17:00.551Z,20.20
2019-04-01T00:19:28.988Z,14.93
2019-04-01T00:21:57.510Z,16.75
2019-04-01T00:24:26.053Z,15.95
2019-04-01T00:26:54.500Z,15.75
2019-04-01T00:29:22.939Z,13.98
2019-04-01T00:31:51.446Z,15.32
2019-04-01T00:34:19.958Z,20.00
2019-04-01T00:36:48.397Z,12.28
2019-04-01T00:39:17.431Z,14.43
2019-04-01T00:41:47.508Z,17.87
2019-04-01T00:44:15.947Z,14.93
2019-04-01T00:46:44.428Z,14.07
2019-04-01T00:49:12.870Z,16.42
2019-04-01T00:51:41.310Z,15.75
2019-04-01T00:54:09.784Z,14.95
2019-04-01T00:56:38.219Z,24.60
2019-04-01T00:59:06.676Z,16.27
2019-04-01T01:01:35.139Z,18.45
2019-04-01T01:04:03.576Z,22.77
2019-04-01T01:06:32.020Z,20.05
2019-04-01T01:09:00.497Z,11.20
2019-04-01T01:11:28.933Z,16.77
2019-04-01T01:13:57.375Z,17.17
2019-04-01T01:16:25.838Z,23.02
2019-04-01T01:18:54.279Z,15.58
2019-04-01T01:21:22.860Z,19.35
2019-04-01T01:23:51.323Z,18.05
2019-04-01T01:26:19.771Z,16.67
2019-04-01T01:28:48.217Z,14.85
2019-04-01T01:31:16.763Z,22.52
2019-04-01T01:33:45.200Z,17.98
2019-04-01T01:36:13.636Z,19.65
2019-04-01T01:38:42.132Z,18.98
2019-04-01T01:41:10.563Z,14.13
2019-04-01T01:43:39.008Z,16.02
2019-04-01T01:46:07.467Z,18.70
2019-04-01T01:48:35.903Z,13.65
2019-04-01T01:51:04.415Z,16.35
2019-04-01T01:53:32.884Z,16.55
2019-04-01T01:56:01.321Z,13.55
2019-04-01T01:58:29.757Z,15.98
2019-04-01T02:00:58.473Z,20.92
2019-04-01T02:03:26.918Z,18.12
2019-04-01T02:05:55.370Z,16.42
2019-04-01T02:08:23.820Z,22.20
2019-04-01T02:10:52.260Z,18.07
2019-04-01T02:13:20.693Z,18.67
2019-04-01T02:15:49.164Z,16.60
2019-04-01T02:18:17.668Z,19.30
2019-04-01T02:20:46.106Z,19.23
2019-04-01T02:23:14.578Z,18.32
2019-04-01T02:25:43.020Z,17.40
2019-04-01T02:28:11.456Z,16.42
2019-04-01T02:30:39.917Z,13.98
2019-04-01T02:33:08.358Z,15.32
2019-04-01T02:35:36.815Z,19.35
2019-04-01T02:38:05.467Z,16.70
2019-04-01T02:40:34.528Z,18.35
2019-04-01T02:43:02.959Z,13.58
2019-04-01T02:45:31.429Z,20.00
2019-04-01T02:48:00.016Z,16.42
2019-04-01T02:50:28.459Z,21.27
2019-04-01T02:52:56.957Z,20.25
2019-04-01T02:55:25.389Z,18.30
2019-04-01T02:57:53.823Z,17.45
2019-04-01T03:00:22.372Z,16.02
2019-04-01T03:02:50.816Z,16.25
2019-04-01T03:05:19.331Z,14.13
2019-04-01T03:07:47.802Z,19.00
2019-04-01T03:10:16.383Z,14.73
2019-04-01T03:12:44.816Z,15.68
2019-04-01T03:15:13.295Z,16.60
2019-04-01T03:17:41.731Z,21.12
2019-04-01T03:20:10.319Z,17.50
2019-04-01T03:22:38.846Z,26.45
2019-04-01T03:25:07.539Z,20.10
2019-04-01T03:27:36.046Z,10.13
2019-04-01T03:30:05.324Z,22.50
2019-04-01T03:32:34.313Z,17.85
2019-04-01T03:35:02.959Z,15.85
2019-04-01T03:37:31.424Z,13.98
2019-04-01T03:40:00.010Z,15.90
2019-04-01T03:42:28.495Z,16.75
2019-04-01T03:44:56.976Z,13.88
2019-04-01T03:47:25.452Z,21.55
2019-04-01T03:49:53.949Z,19.32
2019-04-01T03:52:22.497Z,17.90
2019-04-01T03:54:50.978Z,13.53
2019-04-01T03:57:19.479Z,16.10
2019-04-01T03:59:48.197Z,23.65
2019-04-01T04:02:16.639Z,19.02
2019-04-01T04:04:45.147Z,16.10
2019-04-01T04:07:13.615Z,18.87
2019-04-01T04:09:42.125Z,18.55
2019-04-01T04:12:10.569Z,18.85
2019-04-01T04:14:39.049Z,18.40
2019-04-01T04:17:07.480Z,24.05
2019-04-01T04:19:35.926Z,20.45
2019-04-01T04:22:04.393Z,15.28
2019-04-01T04:24:32.850Z,21.05
2019-04-01T04:27:01.300Z,22.98
2019-04-01T04:29:29.773Z,15.68
2019-04-01T04:31:58.300Z,15.40
2019-04-01T04:34:26.729Z,17.52
2019-04-01T04:36:55.203Z,19.30
2019-04-01T04:39:23.632Z,17.67
2019-04-01T04:41:52.069Z,21.37
2019-04-01T04:44:20.607Z,21.48
2019-04-01T04:46:49.041Z,21.10
2019-04-01T04:49:17.493Z,20.17
2019-04-01T04:51:46.029Z,16.65
2019-04-01T04:54:14.537Z,25.25
2019-04-01T04:56:42.985Z,18.12
2019-04-01T04:59:11.513Z,18.07
2019-04-01T05:01:40.026Z,14.80
2019-04-01T05:04:08.472Z,18.30
2019-04-01T05:06:37.024Z,22.13
2019-04-01T05:09:06.710Z,20.10
2019-04-01T05:11:35.151Z,16.42
2019-04-01T05:14:03.695Z,24.10
2019-04-01T05:16:32.132Z,21.33
2019-04-01T05:19:00.579Z,18.90
2019-04-01T05:21:29.776Z,21.27
2019-04-01T05:23:58.284Z,18.92
2019-04-01T05:26:27.871Z,26.23
2019-04-01T05:28:58.167Z,18.67
2019-04-01T05:31:28.592Z,18.92
2019-04-01T05:33:59.728Z,22.00
2019-04-01T05:38:56.829Z,17.62
2019-04-01T05:41:25.357Z,20.77
2019-04-01T05:43:54.155Z,19.95
2019-04-01T05:46:22.738Z,18.90
2019-04-01T05:48:51.620Z,20.12
2019-04-01T05:51:20.084Z,21.15
2019-04-01T05:53:49.263Z,19.40
2019-04-01T05:56:17.775Z,21.35
2019-04-01T05:58:46.312Z,21.27
2019-04-01T06:01:16.463Z,25.30
2019-04-01T06:03:45.038Z,19.90
2019-04-01T06:06:13.635Z,27.52
2019-04-01T06:08:42.150Z,21.75
2019-04-01T06:11:10.724Z,19.65
2019-04-01T06:13:39.264Z,22.00
2019-04-01T06:16:07.845Z,15.53
2019-04-01T06:18:36.369Z,23.18
2019-04-01T06:21:04.978Z,19.55
2019-04-01T06:23:33.552Z,23.18
2019-04-01T06:26:02.141Z,26.37
2019-04-01T06:28:30.684Z,23.18
2019-04-01T06:30:59.211Z,22.07
2019-04-01T06:33:27.922Z,16.40
2019-04-01T06:35:57.212Z,24.25
2019-04-01T06:38:25.737Z,19.10
2019-04-01T06:40:54.340Z,26.37
2019-04-01T06:43:22.948Z,27.45
2019-04-01T06:45:51.390Z,24.10
2019-04-01T06:48:19.969Z,20.12
2019-04-01T06:50:48.448Z,20.15
2019-04-01T06:53:16.956Z,26.20
2019-04-01T06:55:45.544Z,21.02
2019-04-01T06:58:14.084Z,17.35
2019-04-01T07:00:42.667Z,24.00
2019-04-01T07:03:11.710Z,27.85
2019-04-01T07:05:40.228Z,22.80
2019-04-01T07:08:08.732Z,29.32
2019-04-01T07:10:37.338Z,26.73
2019-04-01T07:13:05.875Z,24.72
2019-04-01T07:15:34.320Z,16.85
2019-04-01T07:18:03.006Z,17.05
2019-04-01T07:20:31.607Z,21.42
2019-04-01T07:23:00.056Z,16.37
2019-04-01T07:25:28.640Z,21.02
2019-04-01T07:27:57.176Z,24.18
2019-04-01T07:30:25.683Z,19.25
2019-04-01T07:32:54.267Z,23.20
2019-04-01T07:35:22.885Z,11.90
2019-04-01T07:37:51.585Z,15.32
2019-04-01T07:40:20.023Z,18.17
2019-04-01T07:42:48.560Z,14.35
2019-04-01T07:45:17.148Z,16.35
2019-04-01T07:47:45.731Z,14.20
2019-04-01T07:50:14.265Z,15.10
2019-04-01T07:52:42.843Z,11.22
2019-04-01T07:55:11.601Z,14.20
2019-04-01T07:57:40.218Z,14.58
2019-04-01T08:00:08.938Z,17.77
2019-04-01T08:02:37.364Z,13.70
2019-04-01T08:05:06.370Z,14.28
2019-04-01T08:07:34.939Z,15.50
2019-04-01T08:10:04.823Z,15.35
2019-04-01T08:12:33.532Z,17.15
2019-04-01T08:15:02.141Z,14.30
2019-04-01T08:17:30.657Z,22.95
2019-04-01T08:19:59.191Z,19.77
2019-04-01T08:22:27.691Z,17.25
2019-04-01T08:24:56.197Z,15.00
2019-04-01T08:27:24.832Z,19.37
2019-04-01T08:29:53.283Z,17.87
2019-04-01T08:32:21.787Z,12.88
2019-04-01T08:34:50.486Z,19.90
2019-04-01T08:37:18.991Z,14.18
2019-04-01T08:39:47.509Z,27.27
2019-04-01T08:42:16.307Z,21.87
2019-04-01T08:44:44.827Z,14.85
2019-04-01T08:47:13.283Z,19.05
2019-04-01T08:49:41.814Z,13.38
2019-04-01T08:52:10.328Z,16.57
2019-04-01T08:54:38.832Z,19.07
2019-04-01T08:57:07.361Z,17.32
2019-04-01T08:59:36.064Z,15.45
2019-04-01T09:02:17.058Z,11.93
2019-04-01T09:04:34.910Z,15.45
2019-04-01T09:07:03.422Z,11.00
2019-04-01T09:09:33.083Z,18.55
2019-04-01T09:12:01.700Z,18.30
2019-04-01T09:14:30.481Z,14.98
2019-04-01T09:16:59.662Z,13.20
2019-04-01T09:19:28.119Z,21.93
2019-04-01T09:21:56.556Z,17.12
2019-04-01T09:24:25.068Z,18.15
2019-04-01T09:26:53.540Z,13.18
2019-04-01T09:29:22.000Z,14.78
2019-04-01T09:31:50.511Z,19.27
2019-04-01T09:34:18.984Z,21.07
2019-04-01T09:36:47.455Z,16.23
2019-04-01T09:39:15.893Z,13.62
2019-04-01T09:41:44.369Z,17.50
2019-04-01T09:44:13.008Z,23.27
2019-04-01T09:46:41.525Z,20.40
2019-04-01T09:49:10.074Z,14.38
2019-04-01T09:51:48.325Z,17.75
2019-04-01T09:54:08.688Z,20.97
2019-04-01T09:56:37.233Z,17.80
2019-04-01T09:59:05.679Z,17.12
2019-04-01T10:01:37.050Z,19.27
2019-04-01T10:04:05.586Z,14.07
2019-04-01T10:06:34.052Z,15.40
2019-04-01T10:09:02.576Z,14.30
2019-04-01T10:11:31.038Z,12.88
2019-04-01T10:13:59.476Z,12.88
2019-04-01T10:16:27.940Z,12.25
2019-04-01T10:18:56.411Z,10.65
2019-04-01T10:21:24.856Z,12.78
2019-04-01T10:23:53.359Z,12.35
2019-04-01T10:26:21.823Z,13.70
2019-04-01T10:28:50.533Z,15.05
2019-04-01T10:31:18.973Z,20.50
2019-04-01T10:33:47.448Z,15.35
2019-04-01T10:36:15.898Z,16.48
2019-04-01T10:38:46.711Z,15.78
2019-04-01T10:41:14.612Z,13.25
2019-04-01T10:43:43.146Z,15.98
2019-04-01T10:46:12.417Z,13.65
2019-04-01T10:48:41.088Z,13.65
2019-04-01T10:51:09.743Z,8.35
2019-04-01T10:53:38.264Z,11.63
2019-04-01T10:56:06.822Z,10.32
2019-04-01T10:58:35.441Z,14.68
2019-04-01T11:01:04.142Z,14.30
2019-04-01T11:03:32.868Z,12.82
2019-04-01T11:06:01.390Z,12.70
2019-04-01T11:08:29.939Z,11.35
2019-04-01T11:10:58.452Z,15.23
2019-04-01T11:13:27.078Z,11.15
2019-04-01T11:15:55.604Z,11.95
2019-04-01T11:18:24.098Z,9.83
2019-04-01T11:20:52.536Z,13.70
2019-04-01T11:23:20.983Z,13.70
2019-04-01T11:25:49.469Z,11.08
2019-04-01T11:28:17.988Z,13.28
2019-04-01T11:30:46.528Z,12.23
2019-04-01T11:33:15.077Z,13.55
2019-04-01T11:35:43.513Z,10.88
2019-04-01T11:38:12.050Z,9.70
2019-04-01T11:40:40.573Z,9.90
2019-04-01T11:43:09.184Z,11.35
2019-04-01T11:45:37.741Z,11.50
2019-04-01T11:48:06.308Z,12.88
2019-04-01T11:50:34.807Z,13.38
2019-04-01T11:53:03.331Z,11.43
2019-04-01T11:55:31.795Z,10.48
2019-04-01T11:58:00.239Z,11.57
2019-04-01T12:00:28.687Z,12.45
2019-04-01T12:02:57.167Z,12.23
2019-04-01T12:05:25.680Z,12.58
2019-04-01T12:07:54.194Z,13.18
2019-04-01T12:10:22.741Z,9.20
2019-04-01T12:12:51.352Z,9.88
2019-04-01T12:15:19.861Z,11.83
2019-04-01T12:17:48.329Z,11.33
2019-04-01T12:20:16.772Z,10.23
2019-04-01T12:22:46.033Z,10.23
2019-04-01T12:25:14.795Z,11.45
2019-04-01T12:27:43.259Z,9.33
2019-04-01T12:30:11.856Z,13.18
2019-04-01T12:32:40.391Z,10.18
2019-04-01T12:35:08.971Z,10.00
2019-04-01T12:37:37.411Z,11.10
2019-04-01T12:40:07.008Z,13.10
2019-04-01T12:42:35.495Z,7.42
2019-04-01T12:45:06.249Z,17.25
2019-04-01T12:50:05.838Z,10.03
2019-04-01T12:52:34.343Z,9.68
2019-04-01T12:55:02.943Z,11.75
2019-04-01T12:57:33.894Z,12.70
2019-04-01T13:00:02.393Z,10.85
2019-04-01T13:02:30.949Z,9.45
2019-04-01T13:04:59.459Z,9.68
2019-04-01T13:07:27.909Z,9.60
2019-04-01T13:09:56.408Z,10.58
2019-04-01T13:12:27.290Z,10.13
2019-04-01T13:14:55.690Z,11.95
2019-04-01T13:17:24.365Z,10.38
2019-04-01T13:19:54.367Z,8.05
2019-04-01T13:22:22.813Z,9.33
2019-04-01T13:28:19.855Z,9.93
2019-04-01T13:30:48.306Z,13.62
2019-04-01T13:33:17.161Z,10.93
2019-04-01T13:35:45.986Z,10.70
2019-04-01T13:38:15.253Z,12.55
2019-04-01T13:40:44.437Z,9.50
2019-04-01T13:43:16.735Z,11.20
2019-04-01T13:45:43.409Z,10.48
2019-04-01T13:48:12.021Z,10.30
2019-04-01T13:50:40.494Z,12.68
2019-04-01T13:53:08.999Z,9.45
2019-04-01T13:55:38.268Z,10.28
2019-04-01T13:58:07.060Z,11.53
2019-04-01T14:00:35.650Z,13.68
2019-04-01T14:03:04.115Z,12.18
2019-04-01T14:05:32.592Z,10.53
2019-04-01T14:08:01.053Z,11.18
2019-04-01T14:10:29.512Z,9.98
2019-04-01T14:12:57.990Z,11.20
2019-04-01T14:15:26.495Z,12.15
2019-04-01T14:17:54.946Z,10.90
2019-04-01T14:20:23.485Z,10.15
2019-04-01T14:22:53.553Z,5.97
2019-04-01T14:25:22.262Z,10.48
2019-04-01T14:27:50.748Z,10.40
2019-04-01T14:30:19.396Z,9.05
2019-04-01T14:32:47.846Z,11.70
2019-04-01T14:35:16.317Z,11.25
2019-04-01T14:37:44.825Z,7.85
2019-04-01T14:40:13.507Z,11.45
2019-04-01T14:42:42.000Z,8.90
2019-04-01T14:45:10.646Z,11.78
2019-04-01T14:47:55.829Z,9.30
2019-04-01T14:50:09.416Z,10.82
2019-04-01T14:52:37.864Z,8.60
2019-04-01T14:55:06.637Z,10.32
2019-04-01T14:57:35.182Z,10.55
2019-04-01T15:00:08.795Z,10.25
2019-04-01T15:02:37.245Z,9.68
2019-04-01T15:05:06.376Z,15.13
2019-04-01T15:07:34.903Z,11.80
2019-04-01T15:10:04.215Z,11.55
2019-04-01T15:12:32.698Z,9.20
2019-04-01T15:15:01.148Z,10.88
2019-04-01T15:17:29.605Z,9.00
2019-04-01T15:19:58.100Z,10.30
2019-04-01T15:22:27.239Z,8.68
2019-04-01T15:24:55.749Z,9.25
2019-04-01T15:27:24.220Z,10.78
2019-04-01T15:29:52.656Z,10.72
2019-04-01T15:32:21.093Z,8.00
2019-04-01T15:34:49.580Z,8.88
2019-04-01T15:37:18.037Z,10.38
2019-04-01T15:39:47.419Z,12.88
2019-04-01T15:42:16.104Z,10.28
2019-04-01T15:44:44.548Z,11.65
2019-04-01T15:47:13.059Z,8.13
2019-04-01T15:49:41.529Z,7.12
2019-04-01T15:52:09.972Z,10.65
2019-04-01T15:54:39.129Z,11.22
2019-04-01T15:57:07.611Z,12.65
2019-04-01T15:59:36.055Z,9.28
2019-04-01T16:02:04.576Z,8.68
2019-04-01T16:04:33.057Z,9.05
2019-04-01T16:07:01.511Z,11.00
2019-04-01T16:09:30.024Z,10.80
2019-04-01T16:11:58.530Z,9.25
2019-04-01T16:14:26.989Z,9.93
2019-04-01T16:16:55.432Z,8.53
2019-04-01T16:19:23.932Z,7.35
2019-04-01T16:21:53.076Z,10.18
2019-04-01T16:24:21.580Z,9.28
2019-04-01T16:26:50.062Z,8.45
2019-04-01T16:29:18.514Z,11.85
2019-04-01T16:31:46.967Z,8.35
2019-04-01T16:34:15.456Z,11.90
2019-04-01T16:36:43.903Z,7.03
2019-04-01T16:39:12.425Z,6.42
2019-04-01T16:41:40.921Z,9.10
2019-04-01T16:44:09.384Z,8.33
2019-04-01T16:46:38.061Z,9.23
2019-04-01T16:49:07.561Z,9.63
2019-04-01T16:51:36.295Z,10.50
2019-04-01T16:54:04.954Z,9.88
2019-04-01T16:56:33.432Z,8.08
2019-04-01T16:59:01.876Z,11.22
2019-04-01T17:01:30.313Z,12.82
2019-04-01T17:03:58.791Z,14.58
2019-04-01T17:06:27.305Z,11.57
2019-04-01T17:08:55.819Z,9.73
2019-04-01T17:11:24.374Z,9.13
2019-04-01T17:13:52.880Z,7.60
2019-04-01T17:16:21.326Z,10.28
2019-04-01T17:18:49.802Z,12.58
2019-04-01T17:21:18.241Z,13.25
2019-04-01T17:23:46.711Z,9.80
2019-04-01T17:26:15.310Z,9.88
2019-04-01T17:28:46.826Z,8.98
2019-04-01T17:31:15.346Z,9.88
2019-04-01T17:33:48.058Z,13.55
2019-04-01T17:36:16.633Z,9.10
2019-04-01T17:38:47.961Z,13.53
2019-04-01T17:41:15.392Z,14.68
2019-04-01T17:43:45.193Z,10.48
2019-04-01T17:46:13.816Z,13.45
2019-04-01T17:48:42.326Z,12.80
2019-04-01T17:51:10.768Z,15.38
2019-04-01T17:53:39.211Z,10.10
2019-04-01T17:56:07.822Z,15.32
2019-04-01T17:58:36.273Z,12.05
2019-04-01T18:01:04.956Z,9.15
2019-04-01T18:03:34.250Z,10.13
2019-04-01T18:06:03.084Z,13.08
2019-04-01T18:08:31.532Z,10.78
2019-04-01T18:11:00.006Z,10.43
2019-04-01T18:13:28.444Z,14.98
2019-04-01T18:15:57.568Z,11.83
2019-04-01T18:18:27.491Z,17.37
2019-04-01T18:20:56.182Z,13.00
2019-04-01T18:23:26.228Z,14.87
2019-04-01T18:25:54.973Z,14.55
2019-04-01T18:28:23.426Z,10.10
2019-04-01T18:30:51.881Z,16.05
2019-04-01T18:36:48.708Z,16.45
2019-04-01T18:39:17.170Z,13.18
2019-04-01T18:41:45.695Z,16.12
2019-04-01T18:44:14.136Z,14.75
2019-04-01T18:46:42.609Z,15.55
2019-04-01T18:49:11.069Z,17.90
2019-04-01T18:51:40.348Z,15.30
2019-04-01T18:54:09.121Z,14.43
2019-04-01T18:56:37.561Z,12.37
2019-04-01T18:59:08.229Z,16.70
2019-04-01T19:01:36.718Z,16.02
2019-04-01T19:04:05.228Z,14.93
2019-04-01T19:06:33.678Z,16.73
2019-04-01T19:09:09.122Z,16.95
2019-04-01T19:11:32.397Z,16.30
2019-04-01T19:14:00.998Z,15.75
2019-04-01T19:16:29.516Z,15.03
2019-04-01T19:18:58.021Z,14.43
2019-04-01T19:21:26.561Z,11.12
2019-04-01T19:23:55.164Z,13.62
2019-04-01T19:26:24.328Z,17.65
2019-04-01T19:28:53.024Z,12.58
2019-04-01T19:31:21.496Z,12.82
2019-04-01T19:33:49.960Z,14.25
2019-04-01T19:36:18.444Z,17.85
2019-04-01T19:38:47.512Z,14.90
2019-04-01T19:41:23.225Z,16.65
2019-04-01T19:43:51.779Z,20.10
2019-04-01T19:46:20.283Z,17.65
2019-04-01T19:48:50.360Z,17.00
2019-04-01T19:51:18.911Z,19.57
2019-04-01T19:53:47.364Z,16.32
2019-04-01T19:56:17.535Z,16.00
2019-04-01T19:58:46.007Z,18.73
2019-04-01T20:01:14.512Z,12.50
2019-04-01T20:03:42.955Z,14.80
2019-04-01T20:06:14.508Z,16.97
2019-04-01T20:08:42.940Z,20.32
2019-04-01T20:11:11.402Z,19.10
2019-04-01T20:13:42.645Z,17.23
2019-04-01T20:16:12.685Z,18.85
2019-04-01T20:18:41.500Z,15.32
2019-04-01T20:21:09.972Z,16.40
2019-04-01T20:23:38.427Z,19.73
2019-04-01T20:26:06.942Z,17.40
2019-04-01T20:28:35.402Z,14.23
2019-04-01T20:31:03.914Z,12.33
2019-04-01T20:33:32.375Z,17.65
2019-04-01T20:36:00.905Z,14.55
2019-04-01T20:38:29.349Z,14.93
2019-04-01T20:40:57.824Z,12.37
2019-04-01T20:43:26.295Z,16.87
2019-04-01T20:45:54.873Z,11.63
2019-04-01T20:48:30.679Z,15.55
2019-04-01T20:50:59.265Z,16.02
2019-04-01T20:53:27.840Z,18.48
2019-04-01T20:55:56.323Z,16.70
2019-04-01T20:58:24.784Z,18.35
2019-04-01T21:00:53.232Z,30.88
2019-04-01T21:03:21.698Z,14.58
2019-04-01T21:05:50.136Z,14.90
2019-04-01T21:08:18.574Z,13.78
2019-04-01T21:10:47.060Z,15.00
2019-04-01T21:13:15.492Z,21.77
2019-04-01T21:15:43.940Z,16.07
2019-04-01T21:18:12.415Z,24.87
2019-04-01T21:20:41.347Z,20.23
2019-04-01T21:23:10.746Z,21.27
2019-04-01T21:25:39.281Z,27.10
2019-04-01T21:28:07.721Z,26.07
2019-04-01T21:30:36.223Z,23.90
2019-04-01T21:33:04.868Z,21.12
2019-04-01T21:35:33.666Z,23.92
2019-04-01T21:38:02.095Z,24.92
2019-04-01T21:40:30.572Z,24.40
2019-04-01T21:42:59.088Z,20.52
2019-04-01T21:45:27.528Z,21.60
2019-04-01T21:47:56.139Z,21.48
2019-04-01T21:50:24.722Z,23.50
2019-04-01T21:52:53.231Z,25.95
2019-04-01T21:55:21.782Z,21.35
2019-04-01T21:57:51.325Z,18.42
2019-04-01T22:00:38.386Z,17.90
2019-04-01T22:03:07.088Z,19.20
2019-04-01T22:05:35.832Z,21.45
2019-04-01T22:08:04.375Z,20.65
2019-04-01T22:10:32.836Z,21.20
2019-04-01T22:13:01.344Z,19.45
2019-04-01T22:15:29.895Z,18.07
2019-04-01T22:17:58.340Z,22.70
2019-04-01T22:20:26.777Z,22.17
2019-04-01T22:22:55.237Z,22.70
2019-04-01T22:25:23.677Z,16.20
2019-04-01T22:27:52.393Z,20.10
2019-04-01T22:30:21.835Z,25.88
2019-04-01T22:32:50.282Z,25.27
2019-04-01T22:35:18.996Z,22.55
2019-04-01T22:37:47.548Z,25.02
2019-04-01T22:40:16.133Z,20.97
2019-04-01T22:42:44.588Z,25.32
2019-04-01T22:45:13.281Z,25.77
2019-04-01T22:47:41.724Z,25.08
2019-04-01T22:50:10.730Z,25.60
2019-04-01T22:52:42.020Z,23.20
2019-04-01T22:55:09.495Z,22.67
2019-04-01T22:57:37.952Z,24.63
2019-04-01T23:00:06.656Z,23.67
2019-04-01T23:02:35.178Z,25.15
2019-04-01T23:05:04.400Z,28.98
2019-04-01T23:07:33.126Z,26.07
2019-04-01T23:10:01.692Z,25.15
2019-04-01T23:12:30.209Z,31.45
2019-04-01T23:14:58.680Z,29.37
2019-04-01T23:17:27.128Z,24.18
2019-04-01T23:19:55.566Z,24.50
2019-04-01T23:22:24.115Z,25.57
2019-04-01T23:24:52.548Z,32.03
2019-04-01T23:27:20.994Z,28.57
2019-04-01T23:29:51.153Z,25.52
2019-04-01T23:32:19.679Z,27.60
2019-04-01T23:34:48.128Z,27.00
2019-04-01T23:37:16.601Z,27.80
2019-04-01T23:39:45.044Z,24.32
2019-04-01T23:42:13.490Z,26.77
2019-04-01T23:44:41.969Z,26.27
2019-04-01T23:47:10.479Z,29.18
2019-04-01T23:49:40.270Z,31.40
2019-04-01T23:52:08.969Z,24.63
2019-04-01T23:54:37.410Z,29.37
2019-04-01T23:57:05.855Z,27.37
2019-04-01T23:59:34.319Z,36.80
